Date,TemperatureHighF,TemperatureAvgF,TemperatureLowF,DewpointHighF,DewpointAvgF,DewpointLowF,HumidityHigh,HumidityAvg,HumidityLow,PressureMaxIn,PressureMinIn,WindSpeedMaxMPH,WindSpeedAvgMPH,GustSpeedMaxMPH,PrecipitationSumIn
2013-1-1,48.2,45.5,41.5,48.2,44.1,34.3,100,95,64,30.11,29.98,7,1,10,0.95
2013-1-2,44.0,39.1,37.7,44.0,38.6,37.0,100,98,92,30.20,30.03,7,2,11,0.00
2013-1-3,42.9,37.2,32.4,37.8,31.6,25.8,100,81,53,30.39,30.16,8,1,10,0.00
2013-1-4,45.4,35.6,27.6,28.9,26.6,24.1,99,72,45,30.45,30.35,8,1,10,0.00
2013-1-5,47.9,37.6,28.1,41.4,30.4,26.1,100,77,47,30.41,30.25,7,0,10,0.02
2013-1-6,48.2,42.7,39.2,43.9,38.3,31.6,100,86,65,30.32,30.16,7,1,11,0.06
2013-1-7,47.7,38.1,28.9,34.1,31.3,28.8,100,78,55,30.41,30.30,9,1,12,0.00
2013-1-8,56.2,43.5,32.7,46.5,38.0,31.8,100,82,59,30.41,30.29,7,0,10,0.00
2013-1-9,54.4,50.9,48.7,54.3,50.4,46.1,100,98,90,30.45,30.33,5,0,7,0.10
2013-1-10,62.9,53.6,49.4,61.0,53.4,49.4,100,99,87,30.44,30.13,10,1,21,0.01
2013-1-11,66.8,63.7,62.2,66.7,63.6,59.8,100,99,90,30.17,30.09,14,4,31,0.40
2013-1-12,71.0,66.0,63.8,70.7,65.3,61.9,100,98,86,30.14,30.01,9,2,15,0.08
2013-1-13,68.4,64.1,52.9,67.8,63.4,52.3,100,98,83,30.09,29.96,10,4,19,2.00
2013-1-14,52.2,42.1,37.7,52.2,42.1,37.7,100,100,100,30.27,30.08,9,3,12,0.99
2013-1-15,43.4,41.1,38.2,43.2,41.1,38.2,100,100,100,30.18,29.98,6,0,8,1.15
2013-1-16,49.2,44.4,40.7,49.1,44.4,40.6,100,100,100,30.08,29.94,6,0,8,0.18
2013-1-17,43.2,39.6,36.2,43.1,37.9,28.0,100,94,69,30.35,29.77,19,6,32,0.18
2013-1-18,46.9,37.6,29.3,34.8,29.9,23.6,100,76,41,30.55,30.35,6,1,11,0.00
2013-1-19,53.7,41.1,28.1,35.9,31.8,28.1,100,73,44,30.44,30.21,10,3,15,0.00
2013-1-20,58.1,46.8,38.9,38.1,34.0,30.0,77,61,44,30.23,30.14,6,1,12,0.00
2013-1-21,47.1,38.9,32.1,36.5,25.2,17.0,100,62,33,30.25,30.11,8,1,14,0.00
2013-1-22,38.1,30.8,24.7,17.6,13.1,8.2,65,48,34,30.39,30.23,9,1,12,0.00
2013-1-23,51.2,39.1,30.9,35.0,22.6,13.4,72,51,41,30.38,30.16,9,1,13,0.00
2013-1-24,48.9,38.6,28.9,41.8,23.1,9.7,80,54,32,30.39,30.18,11,2,16,0.00
2013-1-25,35.4,32.9,29.7,35.4,26.7,11.7,100,80,45,30.38,30.12,10,2,17,0.05
2013-1-26,36.2,35.7,35.3,36.0,35.7,35.3,100,100,100,30.21,30.19,0,0,0,0.00
2013-1-28,53.2,51.3,48.8,49.4,48.3,47.3,100,90,80,30.27,30.25,6,2,10,0.00
2013-1-29,65.7,53.3,46.7,65.4,53.3,46.7,100,100,100,30.26,29.88,10,1,15,0.00
2013-1-30,66.3,56.8,38.6,66.3,56.6,35.8,100,99,81,29.87,29.57,15,5,25,3.21
2013-1-31,46.9,39.0,33.6,36.4,27.4,23.3,92,63,42,30.12,29.83,10,3,19,0.01
2013-2-1,43.4,31.0,22.7,35.5,17.3,8.9,86,57,34,30.43,30.07,11,2,18,0.00
2013-2-2,36.4,30.1,22.8,36.4,26.0,16.3,100,84,69,30.38,30.10,8,1,14,0.04
2013-2-3,52.4,40.1,32.1,39.9,31.8,28.3,100,76,41,30.16,30.03,8,2,14,0.00
2013-2-4,49.1,38.4,27.9,33.8,30.0,27.9,100,74,47,30.16,29.99,8,1,11,0.00
2013-2-5,61.6,49.9,40.9,48.8,40.9,31.3,100,73,42,30.06,29.96,7,1,12,0.01
2013-2-6,61.9,49.9,38.1,47.7,38.8,32.6,100,70,36,30.22,30.06,6,0,8,0.00
2013-2-7,51.2,47.1,43.5,49.0,40.2,34.3,100,77,61,30.15,29.97,4,0,6,0.01
2013-2-8,53.4,46.3,38.0,50.9,42.0,31.1,100,86,58,30.27,29.93,10,3,15,0.07
2013-2-9,53.9,42.7,32.5,32.8,30.8,28.5,90,64,42,30.35,30.23,12,3,16,0.00
2013-2-10,57.9,50.5,43.0,52.6,39.5,26.4,100,70,31,30.26,30.01,14,4,29,0.79
2013-2-11,56.9,52.4,44.6,55.9,47.6,35.1,100,85,60,30.16,30.01,12,2,20,0.11
2013-2-12,51.1,45.5,38.2,44.6,36.7,30.9,100,73,47,30.18,29.85,8,2,13,0.07
2013-2-13,49.1,43.5,40.7,48.0,41.7,35.0,100,93,75,30.03,29.71,11,2,17,0.09
2013-2-14,56.7,45.1,35.4,38.2,34.8,31.8,91,68,45,30.10,30.01,8,1,13,0.00
2013-2-15,59.4,45.7,37.8,41.3,36.4,29.0,100,71,47,30.11,30.02,9,2,15,0.00
2013-2-16,39.1,34.1,28.6,30.9,22.5,12.9,85,63,39,30.18,30.04,9,3,20,0.00
2013-2-17,45.7,33.6,21.8,19.3,16.0,12.3,75,50,30,30.30,30.18,7,1,10,0.00
2013-2-18,60.0,44.6,29.1,32.1,26.0,18.7,86,50,33,30.32,30.00,14,4,25,0.00
2013-2-19,53.6,45.2,38.7,47.4,31.4,14.3,100,65,22,30.22,29.96,14,3,24,0.69
2013-2-20,41.7,35.7,30.6,22.2,18.5,12.9,66,50,32,30.27,30.18,8,2,10,0.00
2013-2-21,52.4,39.2,30.0,41.2,26.4,18.4,100,63,35,30.23,29.95,8,2,12,0.84
2013-2-22,49.6,46.2,40.4,49.2,46.1,40.3,100,100,95,30.10,30.00,11,2,17,0.30
2013-2-23,55.6,47.9,44.2,53.7,47.4,44.1,100,98,83,30.05,29.86,6,0,8,0.26
2013-2-24,56.4,45.3,33.6,44.1,33.3,27.9,100,67,37,30.09,29.95,8,1,10,0.00
2013-2-25,54.5,46.4,38.8,43.9,32.4,26.1,77,58,45,30.04,29.78,8,2,13,0.00
2013-2-26,50.9,45.8,39.9,49.5,44.0,37.1,100,94,71,29.78,29.52,12,4,23,0.62
2013-2-27,54.9,44.5,38.7,40.5,36.9,32.3,100,77,46,29.90,29.76,9,2,20,0.03
2013-2-28,42.0,38.8,37.1,32.3,28.6,26.1,75,66,60,30.04,29.86,7,1,15,0.00
2013-3-1,41.7,37.8,35.5,36.4,31.3,27.6,100,77,66,30.03,29.98,5,0,10,0.00
2013-3-2,38.9,35.2,32.2,35.5,30.1,24.3,100,82,64,30.09,29.97,8,1,14,0.01
2013-3-3,38.7,32.6,29.2,26.3,22.9,19.4,82,67,47,30.11,30.06,8,2,12,0.00
2013-3-4,54.4,40.7,27.0,29.8,26.1,21.4,90,59,33,30.20,29.98,7,0,9,0.00
2013-3-5,56.6,49.4,38.2,56.5,43.7,26.8,100,82,51,30.02,29.65,12,4,24,0.97
2013-3-6,39.4,35.4,32.8,32.7,26.8,22.2,89,70,62,30.26,29.93,10,3,22,0.00
2013-3-7,46.7,37.7,32.5,32.5,29.7,27.8,89,73,55,30.35,30.24,9,3,13,0.00
2013-3-8,55.1,40.9,30.7,31.2,28.4,22.7,94,65,29,30.38,30.27,9,3,14,0.00
2013-3-9,62.0,50.2,37.8,34.2,31.6,29.0,73,50,33,30.32,30.16,9,2,13,0.00
2013-3-10,71.2,61.3,52.7,42.5,35.1,28.8,49,38,21,30.17,30.00,17,5,25,0.00
2013-3-11,61.7,53.7,42.8,58.4,49.6,38.8,100,87,49,30.03,29.74,14,4,31,1.24
2013-3-12,56.7,45.0,38.5,40.2,33.1,30.5,92,65,38,30.14,29.91,8,2,11,0.00
2013-3-13,49.2,40.4,33.1,32.3,25.6,20.6,73,56,37,30.35,30.11,9,2,18,0.00
2013-3-14,52.9,39.3,28.3,40.4,25.8,17.9,100,62,27,30.41,30.26,8,2,14,0.00
2013-3-15,73.5,56.0,34.8,44.4,40.8,34.8,100,63,31,30.29,29.96,9,3,18,0.00
2013-3-16,78.3,66.4,56.6,47.3,44.4,41.4,60,45,29,29.97,29.85,13,4,20,0.00
2013-3-17,74.2,63.8,56.3,52.5,47.8,42.9,71,56,36,29.99,29.89,12,4,19,0.00
2013-3-18,62.2,56.9,51.8,60.8,55.5,47.6,100,95,69,29.94,29.76,13,3,25,0.62
2013-3-19,60.9,50.0,38.1,53.7,31.4,17.3,100,54,24,30.15,29.87,9,2,14,0.00
2013-3-20,59.7,46.2,37.6,32.4,23.9,13.2,72,44,19,30.16,29.93,10,2,20,0.00
2013-3-21,45.2,35.8,25.9,30.8,16.9,10.7,76,47,29,30.06,29.94,9,2,14,0.00
2013-3-22,45.9,39.5,32.8,35.1,24.7,17.8,75,55,43,30.08,29.99,5,1,6,0.00
2013-3-23,53.4,45.0,38.1,49.5,42.7,29.6,100,92,73,30.04,29.77,6,1,8,0.10
2013-3-24,59.9,48.4,40.4,58.9,44.7,29.1,100,88,62,29.84,29.43,13,4,25,1.05
2013-3-25,42.9,36.0,33.6,29.6,26.7,23.5,85,68,58,30.09,29.68,12,4,27,0.00
2013-3-26,39.9,35.8,32.7,32.3,28.6,26.0,98,75,60,30.32,30.08,8,1,12,0.00
2013-3-27,53.1,41.1,29.6,32.3,27.3,23.7,100,60,34,30.37,30.27,9,1,12,0.00
2013-3-28,59.6,46.1,31.4,32.4,30.1,25.6,87,56,34,30.38,30.26,8,1,14,0.00
2013-3-29,55.9,45.9,36.9,45.7,37.1,30.8,100,74,39,30.36,30.22,7,2,11,0.00
2013-3-30,62.6,51.8,43.5,56.9,48.6,43.5,100,91,54,30.24,29.99,5,2,8,0.34
2013-3-31,65.9,57.9,54.6,62.7,57.3,54.3,100,98,67,30.03,29.88,9,2,16,0.52
2013-4-1,69.3,56.6,43.2,55.5,44.2,36.3,100,67,36,30.11,29.92,7,1,13,0.01
2013-4-2,56.7,48.3,40.2,38.8,28.8,22.1,67,48,29,30.25,30.09,8,2,10,0.00
2013-4-3,56.7,50.5,41.7,33.6,25.9,21.4,54,39,28,30.25,30.15,11,3,15,0.00
2013-4-4,52.0,43.6,40.4,46.4,42.8,26.1,100,98,51,30.18,29.99,6,0,9,1.11
2013-4-5,64.9,52.6,41.9,49.4,39.8,33.7,100,67,32,30.12,29.99,10,2,14,0.06
2013-4-6,74.7,60.4,42.6,46.3,38.9,36.1,100,49,26,30.20,30.06,11,2,19,0.00
2013-4-7,77.3,65.1,54.2,47.4,43.9,37.0,64,47,24,30.18,30.05,12,3,19,0.00
2013-4-8,78.9,68.2,57.5,54.9,51.0,45.9,80,55,39,30.13,30.03,13,3,19,0.00
2013-4-9,84.3,70.2,55.9,58.2,53.7,50.8,100,58,35,30.21,30.05,10,2,17,0.00
2013-4-10,87.8,74.9,60.7,58.3,54.5,51.6,86,51,30,30.13,29.90,10,3,16,0.00
2013-4-11,81.2,69.5,62.5,71.1,59.6,53.1,100,73,44,29.93,29.56,14,4,25,1.78
2013-4-12,65.0,56.3,51.4,62.9,43.4,37.0,100,63,36,29.99,0.00,9,1,16,0.01
2013-4-13,74.3,59.2,45.2,48.6,39.6,27.3,100,53,19,30.10,29.97,6,1,8,0.00
2013-4-14,64.1,55.2,47.9,58.3,49.9,37.6,100,84,48,30.06,29.94,9,0,15,0.07
2013-4-15,79.5,66.2,54.9,64.2,56.8,54.6,100,74,45,30.13,29.94,9,2,15,0.00
2013-4-16,81.7,70.5,61.4,66.7,62.9,56.2,100,78,50,30.25,30.11,8,2,15,0.00
2013-4-17,88.8,69.6,61.1,70.8,63.9,56.2,100,85,37,30.23,30.07,10,2,16,0.88
2013-4-18,81.5,71.0,59.7,68.6,59.1,53.0,100,70,38,30.09,29.80,11,4,24,0.00
2013-4-19,73.6,55.4,44.1,69.7,48.2,32.7,100,77,60,30.15,29.70,14,3,25,1.05
2013-4-20,61.7,50.0,36.0,42.9,35.5,27.8,100,62,29,30.29,30.11,6,0,9,0.00
2013-4-21,68.9,55.9,44.1,41.7,37.8,33.4,75,52,27,30.38,30.24,5,0,9,0.00
2013-4-22,74.0,60.0,45.7,50.0,43.7,38.2,100,59,30,30.34,30.14,7,1,11,0.00
2013-4-23,77.4,63.2,47.7,48.9,45.3,37.5,87,54,33,30.24,30.05,8,2,13,0.00
2013-4-24,69.6,58.8,48.1,65.0,52.6,40.9,100,80,59,30.26,30.03,12,2,19,0.07
2013-4-25,66.1,53.2,42.0,43.1,37.1,25.8,98,58,23,30.37,30.24,5,1,8,0.00
2013-4-26,70.5,57.1,44.6,55.3,42.2,33.6,100,62,29,30.40,30.27,6,1,9,0.20
2013-4-27,55.6,53.5,51.7,55.5,53.5,51.7,100,100,100,30.40,30.10,4,0,5,0.37
2013-4-28,59.7,57.5,53.3,59.6,57.5,53.1,100,100,100,30.13,29.92,10,1,18,2.05
2013-4-29,75.9,63.5,56.9,61.5,56.8,51.3,100,82,45,30.06,29.95,8,1,11,0.00
2013-4-30,81.3,65.7,51.4,63.2,55.4,48.7,100,73,34,30.11,29.98,8,0,11,0.00
2013-5-1,74.5,66.4,57.8,65.6,58.2,53.6,100,76,56,30.20,30.09,5,0,9,0.00
2013-5-2,75.3,64.8,55.7,61.6,57.4,53.8,100,78,51,30.21,30.11,7,1,11,0.00
2013-5-3,71.5,63.2,57.6,63.6,56.4,51.6,100,80,55,30.15,29.96,9,1,14,0.01
2013-5-4,63.1,54.2,50.8,59.2,53.6,50.8,100,98,66,29.99,29.89,7,0,10,2.04
2013-5-5,61.6,51.6,47.3,58.9,50.8,47.3,100,97,72,29.92,29.77,8,0,17,0.80
2013-5-6,55.2,50.9,46.1,55.2,50.8,46.1,100,100,94,29.93,29.79,7,0,12,0.17
2013-5-7,74.0,59.1,48.2,57.3,52.1,48.0,100,81,44,30.02,29.90,6,0,11,0.00
2013-5-8,75.8,64.3,54.4,62.5,58.0,54.1,100,82,51,30.09,29.98,6,0,8,0.00
2013-5-9,85.2,69.8,56.7,66.0,57.7,47.9,100,71,29,30.14,30.04,7,1,12,0.00
2013-5-10,74.7,67.3,60.2,64.3,59.3,56.0,100,77,56,30.10,29.97,8,2,15,0.00
2013-5-11,76.5,67.0,59.1,67.8,59.9,50.3,100,79,56,30.03,29.91,6,1,13,0.00
2013-5-12,65.1,57.0,50.0,55.9,38.1,29.0,100,52,27,30.18,30.02,5,1,10,0.00
2013-5-13,69.4,55.6,42.0,44.6,38.1,29.3,100,57,23,30.28,30.16,6,0,10,0.00
2013-5-14,83.7,66.2,46.4,54.9,49.3,38.4,100,59,29,30.26,30.08,9,2,16,0.00
2013-5-15,88.5,73.5,60.4,59.7,54.4,46.1,87,54,25,30.19,30.03,7,1,11,0.00
2013-5-16,86.5,73.2,62.8,61.6,57.3,53.8,89,59,36,30.11,29.99,6,1,10,0.00
2013-5-17,80.1,69.9,63.2,71.3,62.9,53.9,100,80,51,30.12,30.03,8,0,12,0.09
2013-5-18,76.8,69.7,64.8,75.2,69.4,64.7,100,99,84,30.09,30.01,8,2,12,0.53
2013-5-19,71.0,65.4,59.8,71.0,65.4,59.8,100,100,100,30.15,29.98,9,1,14,2.97
2013-5-20,81.7,68.6,57.3,76.0,65.7,57.1,100,92,62,30.14,30.02,5,0,6,0.00
2013-5-21,89.8,73.2,63.5,75.0,67.1,63.4,100,84,43,30.08,29.92,9,1,15,0.00
2013-5-22,86.8,71.3,65.2,74.6,67.7,61.1,100,91,46,30.00,29.87,10,1,20,0.23
2013-5-23,83.3,70.7,63.2,70.3,59.7,51.4,100,71,37,30.08,29.93,9,1,14,0.01
2013-5-24,70.5,62.6,55.6,60.5,50.2,41.1,100,66,36,30.30,30.05,5,1,10,0.00
2013-5-25,76.5,62.8,50.3,53.2,48.6,39.4,100,63,28,30.36,30.19,5,0,9,0.00
2013-5-26,79.8,66.1,54.5,60.3,54.7,47.8,100,70,35,30.31,30.19,4,0,7,0.00
2013-5-27,86.8,72.9,57.7,65.0,59.1,53.0,100,66,33,30.25,30.11,8,1,12,0.00
2013-5-28,88.2,75.3,64.7,65.6,59.6,54.6,100,61,33,30.21,30.11,8,2,12,0.00
2013-5-29,87.8,76.0,65.6,66.8,61.3,53.1,96,62,36,30.24,30.13,8,1,14,0.00
2013-5-30,85.3,74.9,67.4,69.5,65.2,61.5,100,73,48,30.25,30.12,10,2,16,0.00
2013-5-31,84.8,76.2,68.4,70.7,65.4,62.2,100,70,48,30.21,30.06,9,2,16,0.00
2013-6-1,86.3,75.4,71.0,78.9,69.1,63.1,100,82,50,30.11,29.98,10,2,16,0.42
2013-6-2,80.0,71.8,67.3,78.3,71.6,67.3,100,99,73,30.02,29.91,9,1,18,0.78
2013-6-3,79.5,70.7,64.9,74.2,65.1,59.8,100,84,54,30.03,29.93,4,0,6,0.00
2013-6-4,82.0,71.1,60.3,69.7,64.0,56.3,100,81,44,30.07,29.99,5,0,7,0.00
2013-6-5,82.4,69.7,65.9,77.1,68.4,65.4,100,96,65,30.06,29.94,12,1,21,0.70
2013-6-6,82.0,72.2,65.3,77.2,70.6,65.2,100,95,63,29.97,29.78,8,1,11,0.00
2013-6-7,82.8,70.4,66.1,75.2,68.8,64.9,100,95,57,29.91,29.75,4,0,8,0.57
2013-6-8,80.5,72.3,66.3,74.0,68.7,63.7,100,89,57,30.09,29.89,6,1,10,0.00
2013-6-9,81.5,71.8,67.3,78.7,71.4,67.2,100,99,69,30.12,29.98,7,1,12,0.26
2013-6-10,85.8,74.8,67.9,74.6,68.1,58.9,100,83,42,30.02,29.92,9,2,14,0.82
2013-6-11,88.5,77.6,68.7,79.5,71.4,65.7,100,83,47,30.07,29.97,5,0,9,0.08
2013-6-12,92.3,80.2,72.4,82.4,75.3,68.2,100,87,46,30.11,29.98,5,1,10,0.00
2013-6-13,90.7,79.5,72.6,78.3,71.4,66.0,100,77,53,30.00,29.79,8,2,19,0.00
2013-6-14,80.5,72.3,62.9,68.0,60.7,52.6,100,69,40,30.07,29.92,6,1,11,0.00
2013-6-15,87.3,74.6,62.3,69.3,62.9,58.1,100,70,39,30.15,30.04,7,1,10,0.00
2013-6-16,88.8,74.6,66.7,76.6,68.3,61.3,100,84,43,30.16,30.02,7,1,12,0.24
2013-6-17,83.2,72.6,68.7,77.9,71.2,68.7,100,96,66,30.09,29.94,6,0,10,0.23
2013-6-18,78.0,71.5,68.0,77.5,71.4,68.0,100,100,91,29.98,29.90,6,1,10,0.68
2013-6-19,82.5,72.7,64.0,72.5,67.2,61.3,100,85,49,30.11,29.97,4,0,8,0.00
2013-6-20,88.5,75.0,67.1,75.2,68.9,62.1,100,84,43,30.23,30.09,7,1,12,0.00
2013-6-21,85.7,74.3,67.8,74.9,69.1,60.4,100,86,44,30.29,30.18,6,0,9,0.00
2013-6-22,85.0,75.4,68.2,73.2,66.5,59.9,100,76,45,30.26,30.12,5,0,7,0.00
2013-6-23,87.0,76.4,67.3,75.3,70.3,64.0,100,83,49,30.23,30.11,6,1,10,0.00
2013-6-24,89.3,77.5,69.1,77.7,71.6,64.6,100,84,46,30.25,30.11,7,1,10,0.00
2013-6-25,89.8,78.1,71.5,78.8,73.8,66.7,100,88,47,30.20,30.04,6,1,10,0.00
2013-6-26,91.0,81.5,71.7,79.1,72.1,65.7,100,76,44,30.10,29.93,6,2,11,0.00
2013-6-27,90.0,79.3,73.9,81.4,73.7,68.2,100,84,54,30.00,29.84,8,2,15,0.15
2013-6-28,91.3,76.5,68.7,79.3,71.4,66.7,100,87,49,29.90,29.71,6,1,12,0.05
2013-6-29,87.8,76.3,68.4,75.1,64.1,55.1,100,70,34,29.77,29.69,6,1,10,0.01
2013-6-30,88.3,74.5,65.8,73.1,63.8,50.9,100,75,29,29.85,29.72,6,1,11,0.59
2013-7-1,77.1,69.6,64.8,76.5,69.6,64.8,100,100,94,29.95,29.81,6,0,12,0.89
2013-7-2,85.5,72.7,65.9,77.0,69.8,64.1,100,92,49,30.10,29.94,9,1,13,0.03
2013-7-3,72.5,70.1,68.6,72.3,70.1,68.6,100,100,100,30.19,30.08,6,0,9,0.80
2013-7-4,74.5,70.0,67.7,74.4,70.0,67.7,100,100,100,30.19,30.09,7,1,13,1.39
2013-7-5,73.8,71.3,69.2,73.8,71.3,68.7,100,100,100,30.21,30.11,7,2,12,0.25
2013-7-6,72.2,69.8,68.3,72.0,69.8,68.3,100,100,100,30.18,30.13,6,0,10,2.77
2013-7-7,78.0,71.9,68.4,77.9,71.9,68.3,100,100,100,30.20,30.12,6,0,9,0.86
2013-7-8,84.7,76.0,70.5,83.5,75.8,70.5,100,99,86,30.24,30.13,3,0,6,0.02
2013-7-9,86.1,78.0,71.8,84.0,77.3,71.7,100,98,76,30.21,30.09,5,0,7,0.00
2013-7-10,90.7,76.4,68.8,83.0,74.5,68.7,100,95,55,30.13,29.97,7,1,11,0.32
2013-7-11,84.8,74.5,69.7,81.6,74.0,69.7,100,98,74,30.04,29.91,5,0,6,0.20
2013-7-12,81.0,74.3,68.3,76.7,69.7,64.2,100,87,58,30.01,29.93,5,1,9,0.00
2013-7-13,85.5,73.6,64.4,76.6,70.3,64.2,100,90,58,30.11,29.98,8,1,12,0.00
2013-7-14,83.5,75.0,70.2,79.7,73.4,70.2,100,95,67,30.24,30.09,5,0,10,0.04
2013-7-15,85.6,76.3,69.1,79.7,72.2,67.2,100,89,56,30.33,30.22,6,0,10,0.01
2013-7-16,86.5,76.7,70.3,80.9,73.1,70.0,100,90,59,30.36,30.26,5,0,9,0.11
2013-7-17,88.5,77.2,70.6,82.2,73.6,65.2,100,90,52,30.33,30.19,7,0,10,0.04
2013-7-18,87.7,78.1,70.4,79.4,73.9,70.4,100,88,58,30.26,30.09,6,0,9,0.00
2013-7-19,91.2,80.2,73.4,80.0,73.7,66.7,100,83,46,30.16,30.00,5,0,10,0.18
2013-7-20,90.8,79.6,71.3,80.9,73.4,62.3,100,84,39,30.07,29.94,6,1,9,0.01
2013-7-21,88.0,76.4,71.7,78.4,74.7,70.5,100,95,56,30.07,29.97,6,1,11,0.08
2013-7-22,84.8,75.3,70.3,79.3,72.1,65.4,100,91,58,30.04,29.89,7,1,13,0.00
2013-7-23,81.4,76.1,71.7,80.3,75.1,71.7,100,97,78,29.99,29.86,7,1,11,0.06
2013-7-24,83.8,74.5,70.0,79.7,73.1,70.0,100,96,67,29.94,29.86,5,0,8,0.20
2013-7-25,82.5,73.4,65.0,74.6,68.0,58.8,100,85,47,30.07,29.92,4,0,9,0.00
2013-7-26,88.8,74.7,63.9,75.7,69.0,61.8,100,85,42,30.11,30.01,6,1,10,0.00
2013-7-27,74.6,71.2,69.7,74.6,71.2,69.7,100,100,100,30.03,29.98,4,0,5,0.00
2013-7-30,83.7,77.1,72.2,75.0,70.1,63.4,100,81,53,30.24,30.14,4,0,6,0.00
2013-7-31,78.2,71.8,67.7,78.0,71.8,67.7,100,100,96,30.19,30.00,7,1,12,0.47
2013-8-1,83.0,75.6,70.2,77.8,70.8,65.1,100,87,55,30.03,29.98,4,0,8,0.00
2013-8-2,85.3,74.6,66.3,73.1,66.6,58.6,100,78,44,30.09,30.00,5,0,8,0.00
2013-8-3,83.5,75.4,68.4,77.2,71.9,65.3,100,90,61,30.10,30.03,5,0,8,0.00
2013-8-4,84.0,75.9,70.2,77.3,69.4,63.6,100,82,53,30.12,30.04,4,0,6,0.00
2013-8-5,85.2,74.7,63.7,73.5,66.0,50.7,100,77,35,30.12,30.01,4,0,6,0.00
2013-8-6,84.5,76.1,71.2,78.1,72.0,67.1,100,88,58,30.05,29.99,5,0,8,0.04
2013-8-7,84.5,74.0,71.5,80.1,73.1,69.6,100,97,67,30.08,29.98,7,1,13,0.06
2013-8-8,85.3,74.6,71.8,79.9,73.9,71.7,100,98,71,30.09,30.01,7,1,11,0.12
2013-8-9,89.6,77.7,70.4,82.8,75.6,70.3,100,94,59,30.11,30.02,6,1,9,0.41
2013-8-10,89.4,77.7,72.9,81.7,76.5,71.3,100,96,56,30.16,30.10,7,0,11,0.08
2013-8-11,88.7,77.9,71.7,80.3,74.3,71.2,100,90,58,30.19,30.09,7,1,14,0.32
2013-8-12,86.5,75.2,70.9,82.5,73.9,70.9,100,96,66,30.16,30.01,10,0,22,2.66
2013-8-13,84.5,75.7,70.9,79.4,72.7,68.5,100,91,61,30.07,29.92,6,0,10,1.13
2013-8-14,77.3,70.8,64.6,72.7,65.3,58.8,100,83,56,30.08,29.97,5,0,7,0.00
2013-8-15,76.3,69.2,62.6,68.3,63.1,58.6,100,81,66,30.11,30.05,4,0,6,0.00
2013-8-16,73.4,68.3,64.3,69.5,65.7,61.0,100,92,68,30.14,30.07,6,1,8,0.00
2013-8-17,72.5,68.1,66.2,71.3,67.7,66.2,100,98,87,30.17,30.10,5,0,7,0.13
2013-8-18,74.2,69.8,66.1,74.1,69.8,66.0,100,100,100,30.22,30.13,5,0,9,0.49
2013-8-19,75.8,71.0,68.1,75.7,71.0,68.0,100,100,100,30.19,30.09,3,0,4,0.43
2013-8-20,84.5,75.0,68.6,79.6,73.1,68.5,100,94,63,30.21,30.12,7,0,9,0.00
2013-8-21,79.8,73.5,70.5,79.1,73.4,70.5,100,100,92,30.25,30.15,6,0,9,0.11
2013-8-22,82.0,74.0,70.5,80.4,73.8,70.5,100,99,73,30.22,30.09,5,0,9,0.01
2013-8-23,85.2,75.0,69.7,79.0,71.6,69.1,100,90,60,30.14,30.03,5,0,7,0.00
2013-8-24,82.8,73.8,67.8,76.6,71.3,67.8,100,93,66,30.27,30.10,6,0,11,0.04
2013-8-25,82.9,73.9,65.7,71.8,65.9,60.6,100,78,49,30.40,30.26,6,0,8,0.00
2013-8-26,83.3,73.3,64.3,71.6,65.6,59.3,100,80,46,30.35,30.18,5,0,7,0.00
2013-8-27,84.8,76.0,65.6,76.0,68.5,63.1,100,80,51,30.20,30.08,237,1,6,0.00
2013-8-28,86.1,75.9,69.0,78.7,73.6,67.9,100,93,56,30.11,30.03,3,0,6,0.00
2013-8-29,88.8,79.8,71.5,80.0,74.4,69.4,100,85,55,30.08,29.98,4,0,6,0.00
2013-8-30,87.8,77.0,72.9,81.1,75.4,72.1,100,96,63,30.05,29.96,7,0,12,0.14
2013-8-31,90.3,78.7,72.1,80.9,74.6,68.2,100,89,50,30.01,29.89,6,0,8,0.00
2013-9-1,87.0,75.2,72.1,80.8,74.3,70.5,100,97,63,29.98,29.89,9,1,13,0.12
2013-9-2,85.5,76.5,71.8,78.5,73.4,66.1,100,91,56,30.01,29.90,8,1,10,0.00
2013-9-3,85.0,77.2,71.4,77.6,70.5,63.1,100,82,50,30.05,29.90,5,0,9,0.00
2013-9-4,85.1,70.5,64.4,70.7,67.2,59.6,100,91,43,30.16,30.04,3,0,5,0.00
2013-9-5,80.8,71.6,63.9,69.7,65.0,56.8,100,82,45,30.20,30.13,6,0,7,0.00
2013-9-6,82.9,73.4,65.6,71.0,67.3,61.6,100,83,52,30.21,30.09,5,0,7,0.00
2013-9-7,87.5,76.6,66.1,74.4,69.3,64.2,100,81,47,30.16,30.03,7,1,10,0.00
2013-9-8,84.8,75.8,68.1,76.3,71.2,67.7,100,87,57,30.06,29.98,3,0,6,0.00
2013-9-9,89.8,78.0,72.0,78.8,72.9,66.7,100,86,47,30.15,30.02,6,0,9,0.00
2013-9-10,90.2,78.6,70.6,74.6,70.2,62.9,100,77,42,30.25,30.13,5,0,8,0.00
2013-9-11,89.5,78.0,70.0,75.8,69.6,59.8,100,79,41,30.27,30.12,5,0,7,0.00
2013-9-12,88.3,77.9,70.7,76.7,69.3,64.7,100,77,47,30.16,29.95,5,0,9,0.00
2013-9-13,79.3,71.1,62.8,71.3,58.7,47.1,100,67,35,30.01,29.92,4,0,9,0.00
2013-9-14,76.0,64.5,55.1,61.4,54.8,49.8,100,72,47,30.11,29.99,4,0,8,0.00
2013-9-15,82.8,69.4,57.7,67.9,62.1,57.1,100,81,44,30.20,30.09,7,0,11,0.00
2013-9-16,82.0,71.1,63.0,68.8,62.9,55.3,100,78,43,30.20,30.12,3,0,5,0.00
2013-9-17,82.7,72.4,65.3,66.8,62.6,58.1,100,73,49,30.25,30.15,8,1,12,0.00
2013-9-18,80.8,71.2,64.2,66.9,61.9,56.8,100,74,48,30.26,30.15,7,1,11,0.00
2013-9-19,84.0,72.6,61.4,69.1,63.9,59.5,100,77,46,30.23,30.08,6,0,9,0.00
2013-9-20,88.3,75.5,64.6,69.6,64.3,57.1,100,71,36,30.11,29.91,6,1,11,0.00
2013-9-21,75.7,66.3,59.2,72.3,66.1,59.2,100,99,74,29.93,29.79,6,1,10,1.31
2013-9-22,73.5,63.9,55.2,60.5,57.2,52.8,100,81,49,29.95,29.85,5,0,11,0.00
2013-9-23,80.0,67.2,56.6,63.1,59.3,56.2,100,78,45,30.04,29.93,5,0,9,0.00
2013-9-24,70.5,66.1,61.0,69.5,65.5,58.4,100,98,81,30.06,29.91,6,0,9,0.00
2013-9-25,68.0,66.2,65.1,68.0,66.2,65.1,100,100,100,29.93,29.86,4,0,7,0.71
2013-9-26,76.5,67.5,63.8,71.2,64.8,61.1,100,92,59,30.06,29.91,3,0,5,0.00
2013-9-27,77.0,67.0,59.1,68.5,62.2,58.0,100,86,53,30.19,30.04,5,0,8,0.00
2013-9-28,76.7,66.6,58.4,64.5,60.4,56.3,100,82,51,30.25,30.12,5,0,9,0.00
2013-9-29,74.8,64.8,56.5,65.2,59.3,53.4,100,84,49,30.18,30.05,6,0,10,0.01
2013-9-30,76.7,65.2,57.8,65.5,59.3,54.8,100,83,49,30.12,30.02,7,0,11,0.00
2013-10-1,80.6,68.1,59.8,68.7,63.7,59.4,100,88,51,30.19,30.08,5,0,9,0.00
2013-10-2,81.0,71.1,63.6,73.6,67.2,63.3,100,89,56,30.21,30.09,4,0,6,0.00
2013-10-3,84.3,73.5,67.0,72.0,65.3,59.8,100,78,44,30.17,30.08,6,1,9,0.00
2013-10-4,80.5,70.4,62.2,71.0,66.5,62.1,100,89,59,30.20,30.11,6,0,7,0.00
2013-10-5,85.8,73.9,64.1,75.1,65.6,60.9,100,78,44,30.16,30.03,7,1,12,0.00
2013-10-6,82.4,69.9,57.1,74.2,66.5,57.1,100,90,55,30.05,29.85,10,2,15,0.01
2013-10-7,69.7,59.5,55.4,58.1,52.8,48.1,100,80,50,30.08,29.91,7,0,12,0.00
2013-10-8,71.3,61.3,53.2,60.9,52.8,47.1,100,74,52,30.16,30.06,5,1,8,0.00
2013-10-9,73.5,64.5,56.2,64.7,60.1,56.2,100,87,61,30.23,30.13,4,0,7,0.00
2013-10-10,76.3,65.1,57.3,65.2,59.3,55.3,100,84,49,30.19,30.06,4,0,6,0.00
2013-10-11,77.0,64.0,53.9,59.7,55.7,51.1,100,78,42,30.12,30.02,3,0,6,0.00
2013-10-12,77.9,65.6,55.5,66.1,58.5,52.6,100,81,42,30.15,30.05,4,0,7,0.00
2013-10-13,78.4,67.2,56.5,64.8,59.0,53.9,100,78,43,30.25,30.14,5,0,9,0.00
2013-10-14,78.1,68.3,59.4,66.0,61.8,59.3,100,81,53,30.25,30.12,5,0,8,0.00
2013-10-15,71.7,66.0,61.5,65.1,60.8,57.1,100,84,61,30.18,30.07,8,1,12,0.00
2013-10-16,71.4,64.9,60.6,67.0,62.9,58.9,100,94,67,30.09,29.97,6,1,9,0.03
2013-10-17,69.0,62.4,53.2,69.0,61.7,53.2,100,97,83,30.03,29.91,7,1,13,0.20
2013-10-18,64.8,56.2,49.4,54.9,50.3,45.1,100,83,52,30.09,29.98,5,0,7,0.00
2013-10-19,68.3,56.1,47.7,58.2,52.3,46.6,100,88,55,30.06,29.93,6,0,13,0.00
2013-10-20,62.1,50.4,41.4,48.6,44.9,41.3,100,84,50,30.12,30.04,4,0,8,0.00
2013-10-21,69.0,54.2,43.1,53.7,47.3,43.1,100,80,40,30.15,30.01,6,0,9,0.00
2013-10-22,67.0,58.1,51.7,58.0,52.9,48.1,100,84,54,30.05,29.89,4,0,8,0.00
2013-10-23,53.9,48.1,40.1,51.4,41.5,34.3,100,80,50,30.13,29.86,8,0,15,0.00
2013-10-24,59.9,47.6,38.9,43.8,39.5,34.1,100,75,48,30.32,30.09,6,0,10,0.00
2013-10-25,50.7,41.3,33.5,35.8,31.3,27.2,95,69,43,30.47,30.27,5,0,8,0.00
2013-10-26,59.4,45.2,31.6,38.5,34.3,30.8,100,71,37,30.35,30.15,7,1,13,0.00
2013-10-27,63.9,56.3,50.6,56.5,48.7,34.9,100,76,58,30.17,30.11,6,0,8,0.00
2013-10-28,61.1,56.8,51.8,60.8,56.7,51.8,100,100,92,30.30,30.14,6,0,10,0.01
2013-10-29,68.8,60.5,54.7,62.7,58.5,54.7,100,94,69,30.36,30.24,3,0,5,0.00
2013-10-30,78.8,66.2,57.2,63.4,57.6,54.1,100,76,44,30.31,30.15,7,1,10,0.00
2013-10-31,72.8,67.0,62.3,68.9,62.9,55.5,100,87,68,30.18,29.75,11,4,22,0.04
2013-11-1,71.2,62.1,52.6,67.8,54.3,44.5,100,78,42,29.87,29.72,12,1,22,0.31
2013-11-2,63.9,54.3,47.1,53.1,45.1,35.9,100,75,37,30.13,29.85,5,0,10,0.00
2013-11-3,57.9,49.7,42.2,44.9,41.7,38.9,100,75,50,30.31,30.12,4,0,8,0.00
2013-11-4,64.8,50.9,39.6,47.9,40.6,37.5,100,72,38,30.43,30.31,10,1,18,0.00
2013-11-5,64.6,53.4,45.2,45.1,40.8,37.3,81,63,43,30.46,30.33,6,0,8,0.00
2013-11-6,72.7,60.9,51.3,60.1,51.9,38.8,100,73,55,30.33,30.11,10,2,18,0.00
2013-11-7,63.8,52.9,43.9,63.1,45.1,31.8,100,77,47,30.30,30.06,6,1,13,0.51
2013-11-8,55.2,45.7,37.6,37.3,29.7,24.4,86,55,30,30.41,30.27,6,0,12,0.00
2013-11-9,56.6,45.9,34.2,39.1,36.4,33.2,100,72,44,30.35,30.24,6,1,10,0.00
2013-11-10,66.8,54.7,44.4,46.3,39.4,31.4,100,60,27,30.34,30.25,4,0,7,0.00
2013-11-11,65.2,52.2,39.1,37.1,31.5,26.8,71,47,23,30.35,30.18,6,0,9,0.00
2013-11-12,54.6,44.6,31.9,43.0,29.5,15.3,78,55,39,30.54,30.16,9,3,15,0.00
2013-11-13,43.5,34.7,28.1,25.6,20.2,17.4,77,56,39,30.65,30.47,7,1,12,0.00
2013-11-14,56.7,40.1,27.8,33.6,24.7,19.6,100,61,26,30.50,30.29,6,0,9,0.00
2013-11-15,48.2,42.8,38.3,46.1,36.3,22.4,100,79,50,30.30,30.14,2,0,3,0.19
2013-11-16,59.5,49.4,43.6,59.5,49.4,43.6,100,100,100,30.24,30.13,6,0,12,0.00
2013-11-17,67.2,62.6,58.3,67.1,62.6,58.3,100,100,100,30.12,29.88,9,2,16,0.47
2013-11-18,67.5,58.5,48.6,67.4,44.0,32.3,100,61,35,30.18,29.90,7,1,12,0.21
2013-11-19,52.4,46.5,40.9,34.2,29.6,24.5,64,52,36,30.24,30.14,9,2,15,0.00
2013-11-20,58.7,47.1,34.8,36.1,33.4,30.4,100,61,37,30.32,30.18,7,0,11,0.00
2013-11-21,63.1,54.9,48.2,56.3,45.0,34.9,95,69,58,30.38,30.27,8,1,10,0.00
2013-11-22,58.7,56.1,53.1,58.7,55.9,53.1,100,100,94,30.34,30.22,6,1,10,0.10
2013-11-23,53.5,46.8,34.7,53.5,40.5,21.0,100,80,52,30.40,30.22,10,2,13,0.00
2013-11-24,36.4,30.7,24.8,23.1,15.1,7.9,70,53,30,30.56,30.40,10,3,17,0.00
2013-11-25,43.8,34.4,27.8,35.6,20.3,13.2,100,58,31,30.47,30.21,6,0,10,0.00
2013-11-26,43.4,37.3,33.0,43.4,37.3,32.9,100,100,100,30.21,29.77,8,1,11,0.01
2013-11-27,38.5,32.6,26.5,38.5,26.1,17.9,100,77,60,30.31,29.83,11,4,20,0.00
2013-11-28,42.7,31.4,21.1,25.6,21.7,17.6,97,68,48,30.48,30.31,7,0,9,0.00
2013-11-29,48.9,37.4,26.6,34.4,28.6,23.0,100,73,45,30.57,30.47,6,0,8,0.00
2013-11-30,54.7,41.2,30.4,31.8,29.3,27.4,96,65,38,30.54,30.31,8,1,12,0.00
2013-12-1,55.4,45.0,33.4,38.2,32.7,26.5,76,62,49,30.32,30.02,6,1,10,0.00
2013-12-2,49.6,47.6,44.9,49.4,46.1,37.8,100,95,63,30.02,29.83,5,0,7,0.18
2013-12-3,54.4,51.1,48.6,54.4,51.1,48.6,100,100,100,29.90,29.83,5,0,7,0.01
2013-12-4,70.7,60.8,52.9,68.5,59.2,52.8,100,95,68,30.01,29.89,12,2,20,0.00
2013-12-5,73.8,68.0,63.2,71.7,67.3,63.2,100,98,78,30.05,29.94,10,4,16,0.00
2013-12-6,69.5,53.8,39.0,69.4,53.8,38.9,100,100,100,30.20,29.90,9,2,18,1.07
2013-12-7,40.1,38.3,36.4,39.7,38.0,36.3,100,99,94,30.40,30.20,10,4,16,0.00
2013-12-8,47.3,42.2,35.9,47.3,42.2,35.8,100,100,100,30.33,30.09,9,2,12,0.52
2013-12-9,53.0,46.6,40.5,53.0,46.6,40.3,100,100,100,30.18,30.05,6,1,13,0.36
2013-12-10,41.1,36.8,29.0,41.0,34.4,27.8,100,92,66,30.38,30.01,7,1,13,0.21
2013-12-11,47.5,35.8,25.4,34.9,29.3,25.4,100,79,52,30.47,30.35,6,1,9,0.00
2013-12-12,40.2,33.2,26.7,27.7,22.5,17.4,86,66,41,30.54,30.41,7,2,10,0.00
2013-12-13,42.9,34.5,25.0,33.0,26.7,19.8,100,74,53,30.43,30.16,4,0,5,0.00
2013-12-14,48.4,41.8,37.7,48.4,40.1,30.5,100,94,71,30.19,29.82,6,0,8,0.73
2013-12-15,43.9,36.3,32.1,43.9,34.8,30.5,100,94,81,30.24,29.92,7,1,11,0.00
2013-12-16,53.8,39.2,29.1,37.5,33.2,29.1,100,81,51,30.27,30.14,8,2,12,0.00
2013-12-17,59.7,48.0,37.5,38.4,34.2,29.8,79,60,43,30.26,30.07,9,3,14,0.00
2013-12-18,49.4,39.1,29.8,30.3,25.5,22.2,91,60,36,30.37,30.26,6,1,8,0.00
2013-12-19,60.1,46.0,31.7,30.6,27.0,22.1,80,49,29,30.32,30.16,8,2,12,0.00
2013-12-20,61.9,54.2,44.8,52.6,39.6,29.0,78,58,44,30.19,30.09,10,3,16,0.00
2013-12-21,68.1,62.1,58.9,68.1,61.0,52.6,100,96,78,30.09,29.85,12,3,22,0.55
2013-12-22,68.8,59.2,55.4,68.8,59.2,55.3,100,100,91,30.09,29.83,13,4,34,1.52
2013-12-23,55.4,43.1,32.6,55.4,40.9,29.1,100,92,76,30.37,30.06,9,3,12,0.04
2013-12-24,35.5,31.5,27.7,30.8,23.4,17.5,100,72,50,30.50,30.36,8,2,13,0.00
2013-12-25,45.7,32.9,22.2,27.6,22.5,17.4,89,66,47,30.47,30.33,6,1,10,0.00
2013-12-26,48.4,37.5,28.9,32.3,27.5,23.1,87,67,52,30.41,30.31,4,0,7,0.00
2013-12-27,51.1,38.7,28.9,32.5,27.9,23.5,100,68,36,30.48,30.36,5,0,6,0.00
2013-12-28,40.7,35.9,31.2,39.6,34.7,27.0,100,96,76,30.41,29.98,5,0,6,0.20
2013-12-29,48.5,42.8,38.4,48.5,42.8,38.4,100,100,100,30.07,29.89,5,0,8,0.34
2013-12-30,42.5,38.6,36.5,42.5,37.4,33.6,100,95,83,30.25,30.06,5,1,8,0.00
2013-12-31,40.2,34.6,29.4,37.2,30.2,26.9,100,85,61,30.47,30.23,6,0,10,0.00
2014-1-1,49.9,37.2,28.0,35.7,32.0,28.0,100,83,54,30.36,30.10,8,1,10,0.00
2014-1-2,46.9,38.0,22.4,46.9,35.6,16.0,100,91,74,30.24,29.81,9,2,18,0.32